Time;durP1;ratioP1;P1;durP2;ratioP2;P2;SDS_P1;SDS_P2;PMS_P1;PMS_P2;Temp;Humidity;BMP_temperature;BMP_pressure;BME280_temperature;BME280_humidity;BME280_pressure;Samples;Min_cycle;Max_cycle;Signal;HPM_P1;HPM_P2
2022/07/01 00:00:51;;;;;;;7.22;2.05;;;15.30;99.90;;;;;;5043552;28;20077;-63
2022/07/01 00:03:16;;;;;;;5.20;1.92;;;15.20;99.90;;;;;;5038918;28;20046;-63
2022/07/01 00:05:42;;;;;;;5.43;2.22;;;15.20;99.90;;;;;;5042600;28;20041;-63
2022/07/01 00:08:08;;;;;;;8.02;2.15;;;15.30;99.90;;;;;;5043378;28;20106;-63
2022/07/01 00:10:35;;;;;;;6.55;2.15;;;15.20;99.90;;;;;;5041558;28;20041;-63
2022/07/01 00:13:01;;;;;;;7.82;2.05;;;15.20;99.90;;;;;;5044616;28;20037;-63
2022/07/01 00:15:27;;;;;;;6.00;1.90;;;15.20;99.90;;;;;;5071153;28;20057;-63
2022/07/01 00:17:53;;;;;;;9.07;1.80;;;15.30;99.90;;;;;;5044791;28;20042;-63
2022/07/01 00:20:19;;;;;;;4.35;1.70;;;15.20;99.90;;;;;;5047630;28;20100;-63
2022/07/01 00:22:44;;;;;;;5.60;1.88;;;15.20;99.90;;;;;;5046401;28;20088;-63
2022/07/01 00:25:10;;;;;;;6.93;1.88;;;15.20;99.90;;;;;;5040390;28;20448;-63
2022/07/01 00:27:40;;;;;;;4.60;1.95;;;15.20;99.90;;;;;;5047418;28;20046;-63
2022/07/01 00:30:10;;;;;;;5.93;2.08;;;15.30;99.90;;;;;;5079870;28;20077;-63
2022/07/01 00:32:36;;;;;;;;;;;15.20;99.90;;;;;;5059949;28;20068;-63
2022/07/01 00:35:02;;;;;;;4.63;2.17;;;15.30;99.90;;;;;;5056086;28;19984;-63
2022/07/01 00:37:27;;;;;;;4.57;1.92;;;15.30;99.90;;;;;;5029695;28;20071;-63
2022/07/01 00:39:53;;;;;;;4.35;1.83;;;15.20;99.90;;;;;;5046610;28;20045;-63
2022/07/01 00:42:19;;;;;;;5.07;1.98;;;15.20;99.90;;;;;;5041987;28;20065;-63
2022/07/01 00:44:44;;;;;;;4.55;1.80;;;15.40;99.90;;;;;;5046792;28;20096;-63
2022/07/01 00:47:12;;;;;;;6.18;2.03;;;15.30;99.90;;;;;;5046133;28;20098;-63
2022/07/01 00:49:39;;;;;;;6.03;2.30;;;15.20;99.90;;;;;;5048150;28;20038;-63
2022/07/01 00:52:07;;;;;;;2.95;1.88;;;15.10;99.90;;;;;;5080026;28;20046;-63
2022/07/01 00:54:35;;;;;;;5.32;2.30;;;15.20;99.90;;;;;;5075096;28;20486;-63
2022/07/01 00:57:07;;;;;;;4.50;1.92;;;15.10;99.90;;;;;;5046606;28;20045;-63
2022/07/01 00:59:34;;;;;;;4.28;2.05;;;15.10;99.90;;;;;;5047924;28;20402;-63
2022/07/01 01:02:00;;;;;;;7.10;2.17;;;15.20;99.90;;;;;;5045203;28;20470;-63
2022/07/01 01:04:26;;;;;;;4.60;2.20;;;15.30;99.90;;;;;;5045667;28;20049;-63
2022/07/01 01:06:51;;;;;;;4.80;2.20;;;15.30;99.90;;;;;;5047263;28;20030;-63
2022/07/01 01:09:17;;;;;;;2.38;1.38;;;15.30;99.90;;;;;;5063005;28;20045;-63
2022/07/01 01:11:43;;;;;;;4.03;1.50;;;15.20;99.90;;;;;;5045679;28;20046;-63
2022/07/01 01:14:09;;;;;;;3.70;1.20;;;15.10;99.90;;;;;;5046722;28;20038;-63
2022/07/01 01:16:35;;;;;;;4.00;1.10;;;15.10;99.90;;;;;;5047217;28;20055;-63
2022/07/01 01:19:05;;;;;;;4.47;1.67;;;15.00;99.90;;;;;;5044177;28;20049;-63
2022/07/01 01:21:32;;;;;;;;;;;14.90;99.90;;;;;;5047026;28;20057;-63
2022/07/01 01:23:58;;;;;;;1.77;1.30;;;15.00;99.90;;;;;;5045084;28;19921;-63
2022/07/01 01:26:25;;;;;;;3.35;1.33;;;14.90;99.90;;;;;;5046472;28;20103;-63
2022/07/01 01:28:51;;;;;;;5.85;1.70;;;15.10;99.90;;;;;;5077660;28;20050;-63
2022/07/01 01:31:28;;;;;;;4.03;1.45;;;15.10;99.90;;;;;;5046520;28;20116;-63
2022/07/01 01:33:54;;;;;;;3.10;1.60;;;15.20;99.90;;;;;;5041646;28;20486;-63
2022/07/01 01:36:20;;;;;;;3.28;1.50;;;15.20;99.90;;;;;;5045204;28;20084;-63
2022/07/01 01:38:45;;;;;;;2.80;1.30;;;15.30;99.90;;;;;;5044664;28;20045;-63
2022/07/01 01:41:11;;;;;;;1.83;1.20;;;15.30;99.90;;;;;;5038373;28;20057;-63
2022/07/01 01:43:37;;;;;;;2.60;1.20;;;15.40;99.90;;;;;;5046365;28;20045;-63
2022/07/01 01:46:03;;;;;;;3.83;1.58;;;15.50;99.90;;;;;;5044133;28;20105;-63
2022/07/01 01:48:30;;;;;;;3.38;1.20;;;15.40;99.90;;;;;;5043647;28;20049;-63
2022/07/01 01:50:56;;;;;;;4.22;1.55;;;15.40;99.90;;;;;;5044908;28;20106;-63
2022/07/01 01:53:22;;;;;;;2.63;1.23;;;15.40;99.90;;;;;;5045739;28;20076;-63
2022/07/01 01:55:48;;;;;;;2.03;1.38;;;15.50;99.90;;;;;;5046136;28;20097;-63
2022/07/01 01:58:14;;;;;;;2.22;1.33;;;15.30;99.90;;;;;;5077896;28;20044;-63
2022/07/01 02:00:39;;;;;;;3.30;1.60;;;15.20;99.90;;;;;;5046191;28;20045;-63
2022/07/01 02:03:05;;;;;;;4.00;1.80;;;15.30;99.90;;;;;;5044438;28;20064;-63
2022/07/01 02:05:31;;;;;;;3.30;1.90;;;15.40;99.90;;;;;;5044637;28;20679;-63
2022/07/01 02:07:57;;;;;;;2.05;1.63;;;15.40;99.90;;;;;;5045573;28;20097;-63
2022/07/01 02:10:23;;;;;;;3.45;1.63;;;15.50;99.90;;;;;;5044084;28;20029;-63
2022/07/01 02:12:48;;;;;;;3.60;1.50;;;15.30;99.90;;;;;;5045555;28;20089;-63
2022/07/01 02:15:14;;;;;;;2.60;1.65;;;15.30;99.90;;;;;;5045992;28;20061;-63
2022/07/01 02:17:40;;;;;;;1.98;1.58;;;15.30;99.90;;;;;;5044662;28;20041;-63
2022/07/01 02:20:06;;;;;;;1.98;1.40;;;15.20;99.90;;;;;;5045403;28;20125;-63
2022/07/01 02:22:32;;;;;;;2.00;1.50;;;15.20;99.90;;;;;;5044778;28;20049;-63
2022/07/01 02:24:57;;;;;;;1.80;1.58;;;15.30;99.90;;;;;;5045768;28;20069;-65
2022/07/01 02:27:23;;;;;;;3.80;1.63;;;15.10;99.90;;;;;;5044458;28;20418;-63
2022/07/01 02:29:49;;;;;;;1.60;1.45;;;15.10;99.90;;;;;;5044076;28;20053;-63
2022/07/01 02:32:14;;;;;;;3.63;1.60;;;15.00;99.90;;;;;;5044076;28;20045;-63
2022/07/01 02:34:40;;;;;;;3.65;1.80;;;15.10;99.90;;;;;;5044107;28;20414;-63
2022/07/01 02:37:06;;;;;;;2.70;1.55;;;15.10;99.90;;;;;;5044070;28;20103;-63
2022/07/01 02:39:35;;;;;;;3.63;1.50;;;15.00;99.90;;;;;;5038382;28;20109;-63
2022/07/01 02:44:45;;;;;;;3.47;1.80;;;14.90;99.90;;;;;;5044595;28;20056;-63
2022/07/01 02:47:11;;;;;;;2.10;1.90;;;14.90;99.90;;;;;;5044441;28;20045;-63
2022/07/01 02:49:36;;;;;;;4.88;2.03;;;14.90;99.90;;;;;;5077407;28;20049;-63
2022/07/01 02:52:02;;;;;;;3.03;2.40;;;14.90;99.90;;;;;;5043530;28;20041;-63
2022/07/01 02:54:29;;;;;;;4.55;1.80;;;14.90;99.90;;;;;;5041610;28;20057;-63
2022/07/01 02:56:54;;;;;;;3.10;1.95;;;15.00;99.90;;;;;;5077405;28;20171;-62
2022/07/01 02:59:20;;;;;;;3.25;2.00;;;15.00;99.90;;;;;;5045207;28;20084;-63
2022/07/01 03:01:46;;;;;;;2.60;2.10;;;14.90;99.90;;;;;;5043412;28;20049;-63
2022/07/01 03:04:11;;;;;;;2.13;1.92;;;14.90;99.90;;;;;;5044467;28;20049;-63
2022/07/01 03:06:37;;;;;;;3.47;2.28;;;14.80;99.90;;;;;;5044568;28;20044;-63
2022/07/01 03:09:03;;;;;;;5.07;2.20;;;15.00;99.90;;;;;;5044324;28;20053;-63
2022/07/01 03:11:29;;;;;;;3.05;2.20;;;14.90;99.90;;;;;;5045373;28;20075;-63
2022/07/01 03:13:54;;;;;;;4.65;2.90;;;14.90;99.90;;;;;;5043533;28;20442;-63
2022/07/01 03:16:20;;;;;;;3.85;2.60;;;14.90;99.90;;;;;;5041049;28;20046;-63
2022/07/01 03:18:46;;;;;;;4.22;3.40;;;14.90;99.90;;;;;;5042880;28;20049;-63
2022/07/01 03:21:12;;;;;;;6.47;3.10;;;14.90;99.90;;;;;;5076533;28;20041;-63
2022/07/01 03:23:37;;;;;;;6.32;3.45;;;14.90;99.90;;;;;;5040329;28;20075;-63
2022/07/01 03:26:03;;;;;;;5.07;3.90;;;14.90;99.90;;;;;;5043445;28;20075;-63
2022/07/01 03:28:29;;;;;;;8.38;4.25;;;15.00;99.90;;;;;;5010725;28;20599;-63
2022/07/01 03:30:54;;;;;;;5.78;4.40;;;14.90;99.90;;;;;;5043065;28;20049;-63
2022/07/01 03:33:20;;;;;;;5.50;4.22;;;14.80;99.90;;;;;;5042225;28;20049;-63
2022/07/01 03:35:45;;;;;;;9.75;5.47;;;15.00;99.90;;;;;;5041832;28;20045;-63
2022/07/01 03:38:12;;;;;;;6.07;5.20;;;14.80;99.90;;;;;;5042261;28;20445;-63
2022/07/01 03:40:38;;;;;;;6.63;5.70;;;14.80;99.90;;;;;;5044251;28;20041;-63
2022/07/01 03:43:04;;;;;;;5.78;5.18;;;14.80;99.90;;;;;;5025086;28;20048;-63
2022/07/01 03:45:30;;;;;;;9.05;6.03;;;15.00;99.90;;;;;;5039861;28;20080;-63
2022/07/01 03:47:57;;;;;;;7.15;6.28;;;15.10;99.90;;;;;;5076747;28;20045;-63
2022/07/01 03:50:24;;;;;;;8.95;7.00;;;14.90;99.90;;;;;;5041238;28;20037;-63
2022/07/01 03:54:29;;;;;;;14.13;10.15;;;14.80;99.90;;;;;;5062827;28;20046;-63
2022/07/01 03:55:37;;;;;;;15.70;10.95;;;14.70;99.90;;;;;;5044832;28;20049;-63
2022/07/01 03:58:03;;;;;;;14.15;11.43;;;14.70;99.90;;;;;;5048463;28;20134;-63
2022/07/01 04:00:33;;;;;;;16.73;13.32;;;14.90;99.90;;;;;;5047690;28;20460;-63
2022/07/01 04:02:59;;;;;;;;;;;14.70;99.90;;;;;;5047410;28;20052;-63
2022/07/01 04:05:25;;;;;;;14.70;12.57;;;14.80;99.90;;;;;;5044179;28;19921;-63
2022/07/01 04:07:50;;;;;;;15.65;12.60;;;14.90;99.90;;;;;;5046812;28;20117;-63
2022/07/01 04:10:16;;;;;;;16.58;13.82;;;14.90;99.90;;;;;;5079828;28;20053;-63
2022/07/01 04:12:42;;;;;;;18.48;14.48;;;14.80;99.90;;;;;;5028827;28;20504;-63
2022/07/01 04:15:08;;;;;;;17.40;13.68;;;14.80;99.90;;;;;;5043935;28;20041;-63
2022/07/01 04:17:34;;;;;;;17.77;12.65;;;14.90;99.90;;;;;;5046383;28;20053;-63
2022/07/01 04:20:00;;;;;;;18.23;13.60;;;14.80;99.90;;;;;;5046468;28;20049;-63
2022/07/01 04:22:35;;;;;;;18.83;14.80;;;15.00;99.90;;;;;;5043028;28;20099;-63
2022/07/01 04:25:03;;;;;;;19.05;15.57;;;14.90;99.90;;;;;;5046768;28;20052;-63
2022/07/01 04:27:32;;;;;;;21.60;16.00;;;14.90;99.90;;;;;;5047534;28;20615;-63
2022/07/01 04:29:58;;;;;;;23.05;15.73;;;15.00;99.90;;;;;;5046240;28;20056;-63
2022/07/01 04:32:24;;;;;;;22.50;15.90;;;15.10;99.90;;;;;;5041864;28;20041;-63
2022/07/01 04:34:51;;;;;;;24.00;16.70;;;14.90;99.90;;;;;;5046902;28;20498;-63
2022/07/01 04:37:17;;;;;;;24.77;16.23;;;15.00;99.90;;;;;;5077698;28;20052;-63
2022/07/01 04:39:42;;;;;;;26.42;17.02;;;15.00;99.90;;;;;;5045873;28;20054;-63
2022/07/01 04:42:08;;;;;;;26.35;18.90;;;15.20;99.90;;;;;;5044870;28;20043;-63
2022/07/01 04:44:35;;;;;;;24.23;18.17;;;15.20;99.90;;;;;;5005519;28;20041;-61
2022/07/01 04:47:03;;;;;;;25.98;19.88;;;15.00;99.90;;;;;;5044586;28;20076;-61
2022/07/01 04:49:29;;;;;;;30.00;25.13;;;14.90;99.90;;;;;;5037123;28;20063;-61
2022/07/01 04:51:55;;;;;;;27.50;20.52;;;15.00;99.90;;;;;;5016263;28;20040;-63
2022/07/01 04:54:21;;;;;;;28.25;21.17;;;15.00;99.90;;;;;;5052752;28;20128;-62
2022/07/01 04:56:47;;;;;;;28.42;22.27;;;15.20;99.90;;;;;;5037564;28;20133;-64
2022/07/01 04:59:14;;;;;;;31.77;21.90;;;14.90;99.90;;;;;;5048707;28;20045;-63
2022/07/01 05:01:43;;;;;;;27.80;21.48;;;14.90;99.90;;;;;;5034484;28;20080;-63
2022/07/01 05:04:10;;;;;;;29.63;21.98;;;15.00;99.90;;;;;;5035357;28;20504;-63
2022/07/01 05:06:36;;;;;;;31.92;24.27;;;15.10;99.90;;;;;;5054286;28;20053;-62
2022/07/01 05:09:02;;;;;;;29.25;22.33;;;14.90;99.90;;;;;;5034452;28;20044;-63
2022/07/01 05:11:28;;;;;;;28.88;22.00;;;14.90;99.90;;;;;;5039544;28;20041;-63
2022/07/01 05:13:53;;;;;;;32.13;23.02;;;14.80;99.90;;;;;;5048829;28;20072;-63
2022/07/01 05:16:19;;;;;;;29.33;23.08;;;14.90;99.90;;;;;;5022963;28;20032;-63
2022/07/01 05:24:14;;;;;;;32.40;23.83;;;14.90;99.90;;;;;;5043298;28;20472;-63
2022/07/01 05:26:40;;;;;;;29.88;22.40;;;14.80;99.90;;;;;;5039392;28;20542;-63
2022/07/01 05:29:05;;;;;;;29.85;22.25;;;14.90;99.90;;;;;;5042823;28;20038;-63
2022/07/01 05:31:31;;;;;;;31.60;23.77;;;14.90;99.90;;;;;;5038376;28;20075;-64
2022/07/01 05:33:57;;;;;;;31.33;21.75;;;15.00;99.90;;;;;;5049902;28;20065;-65
2022/07/01 05:36:23;;;;;;;31.20;23.15;;;15.00;99.90;;;;;;5037807;28;20118;-64
2022/07/01 05:38:48;;;;;;;33.63;22.95;;;15.00;99.90;;;;;;5044090;28;20397;-63
2022/07/01 05:41:15;;;;;;;32.30;24.45;;;14.90;99.90;;;;;;5036415;28;20084;-64
2022/07/01 05:43:41;;;;;;;31.98;23.67;;;15.00;99.90;;;;;;5026008;28;20057;-63
2022/07/01 05:46:06;;;;;;;32.72;22.60;;;15.00;99.90;;;;;;5033688;28;20083;-63
2022/07/01 05:48:32;;;;;;;32.38;23.30;;;15.00;99.90;;;;;;5050026;28;20069;-63
2022/07/01 05:50:58;;;;;;;31.27;23.85;;;15.10;99.90;;;;;;5030640;28;20046;-64
2022/07/01 05:53:23;;;;;;;34.30;24.55;;;15.30;99.90;;;;;;5037140;28;20072;-64
2022/07/01 05:55:50;;;;;;;33.10;24.50;;;15.30;99.90;;;;;;5025785;28;20458;-64
2022/07/01 05:58:16;;;;;;;33.40;24.48;;;15.30;99.90;;;;;;5051901;28;20072;-63
2022/07/01 06:00:42;;;;;;;31.33;24.50;;;15.40;99.90;;;;;;5034146;28;20050;-63
2022/07/01 06:03:12;;;;;;;30.30;23.05;;;15.20;99.90;;;;;;5030801;28;20054;-63
2022/07/01 06:05:39;;;;;;;33.17;25.58;;;15.40;99.90;;;;;;5006766;28;20064;-61
2022/07/01 06:08:05;;;;;;;34.22;26.33;;;15.30;99.90;;;;;;5046138;28;20079;-61
2022/07/01 06:10:32;;;;;;;33.13;25.63;;;15.50;99.90;;;;;;5024014;28;20042;-61
2022/07/01 06:12:57;;;;;;;34.92;26.42;;;15.40;99.90;;;;;;5030105;28;20048;-61
2022/07/01 06:15:23;;;;;;;32.03;25.65;;;15.20;99.90;;;;;;5051591;28;20053;-61
2022/07/01 06:17:49;;;;;;;32.90;25.08;;;15.50;99.90;;;;;;5030232;28;20099;-61
2022/07/01 06:20:15;;;;;;;34.70;26.25;;;15.40;99.90;;;;;;5056741;28;20048;-61
2022/07/01 06:22:41;;;;;;;33.15;25.67;;;15.40;99.90;;;;;;5029353;28;20044;-61
2022/07/01 06:25:07;;;;;;;30.35;25.58;;;15.40;99.90;;;;;;5020644;28;20590;-62
2022/07/01 06:27:41;;;;;;;34.83;25.67;;;15.40;99.90;;;;;;5009842;28;20057;-61
2022/07/01 06:30:08;;;;;;;35.45;27.25;;;15.50;99.90;;;;;;5023342;28;20049;-61
2022/07/01 06:32:33;;;;;;;31.90;27.25;;;15.60;99.90;;;;;;5026612;28;20041;-61
2022/07/01 06:34:59;;;;;;;32.03;26.88;;;15.60;99.90;;;;;;5027547;28;20063;-61
2022/07/01 06:37:25;;;;;;;34.85;27.60;;;15.40;99.90;;;;;;5031321;28;20068;-61
2022/07/01 06:39:51;;;;;;;30.67;25.48;;;15.50;99.90;;;;;;5026202;28;20060;-62
2022/07/01 06:42:17;;;;;;;30.50;25.77;;;15.50;99.90;;;;;;5023710;28;20044;-62
2022/07/01 06:44:42;;;;;;;33.53;26.98;;;15.70;99.90;;;;;;5026346;28;20126;-61
2022/07/01 06:47:08;;;;;;;33.35;26.88;;;15.70;99.90;;;;;;5031758;28;20608;-61
2022/07/01 06:49:34;;;;;;;33.28;27.67;;;15.70;99.90;;;;;;5025750;28;20061;-61
2022/07/01 06:51:59;;;;;;;31.42;25.80;;;15.70;99.90;;;;;;5028462;28;20115;-61
2022/07/01 06:54:25;;;;;;;32.60;26.88;;;15.70;99.90;;;;;;5037215;28;20045;-61
2022/07/01 06:56:51;;;;;;;30.55;25.92;;;15.80;99.90;;;;;;5033614;28;20059;-61
2022/07/01 06:59:17;;;;;;;30.38;25.73;;;15.90;99.90;;;;;;5030962;28;20077;-61
2022/07/01 07:01:42;;;;;;;33.58;26.35;;;15.90;99.90;;;;;;5043694;28;20053;-62
2022/07/01 07:04:08;;;;;;;30.60;25.52;;;16.00;99.90;;;;;;5059901;28;20049;-61
2022/07/01 07:06:34;;;;;;;28.73;24.95;;;16.00;99.90;;;;;;5032606;28;20048;-61
2022/07/01 07:08:59;;;;;;;30.58;26.75;;;16.00;99.90;;;;;;5045636;28;20109;-61
2022/07/01 07:11:27;;;;;;;32.53;26.92;;;16.10;99.90;;;;;;5031639;28;20048;-62
2022/07/01 07:13:52;;;;;;;32.30;28.00;;;16.00;99.90;;;;;;5060674;28;20038;-61
2022/07/01 07:16:21;;;;;;;34.83;29.15;;;16.10;99.90;;;;;;5031525;28;20110;-61
2022/07/01 07:18:48;;;;;;;34.53;26.58;;;15.80;99.90;;;;;;5048577;28;20045;-61
2022/07/01 07:21:13;;;;;;;35.15;27.05;;;15.80;99.90;;;;;;5027994;28;20058;-63
2022/07/01 07:23:40;;;;;;;34.85;28.05;;;15.90;99.90;;;;;;5049942;28;20115;-61
2022/07/01 07:26:06;;;;;;;31.48;27.38;;;15.70;99.90;;;;;;5025927;28;20050;-62
2022/07/01 07:28:32;;;;;;;31.60;25.83;;;15.80;99.90;;;;;;5067651;28;20117;-62
2022/07/01 07:30:57;;;;;;;31.48;27.00;;;16.00;99.90;;;;;;5036763;28;20052;-62
2022/07/01 07:33:23;;;;;;;32.70;26.60;;;15.80;99.90;;;;;;5043754;28;20555;-63
2022/07/01 07:35:49;;;;;;;32.47;27.60;;;16.00;99.90;;;;;;5037908;28;20033;-62
2022/07/01 07:38:15;;;;;;;34.97;28.83;;;16.00;99.90;;;;;;5058662;28;20153;-62
2022/07/01 07:40:41;;;;;;;32.38;27.13;;;16.00;99.90;;;;;;5033137;28;20064;-63
2022/07/01 07:43:07;;;;;;;34.60;28.40;;;15.90;99.90;;;;;;5032840;28;20063;-63
2022/07/01 07:45:34;;;;;;;34.13;26.23;;;16.00;99.90;;;;;;5037105;28;20272;-63
2022/07/01 07:48:00;;;;;;;32.58;26.52;;;15.90;99.90;;;;;;5041741;28;20040;-62
2022/07/01 07:50:26;;;;;;;30.38;25.20;;;15.90;99.90;;;;;;5035074;28;20053;-63
2022/07/01 07:52:51;;;;;;;30.60;25.10;;;16.00;99.90;;;;;;5046968;28;20044;-62
2022/07/01 07:55:17;;;;;;;31.05;25.52;;;16.10;99.90;;;;;;5034266;28;20038;-63
2022/07/01 07:57:43;;;;;;;30.90;24.77;;;16.10;99.90;;;;;;5037007;28;20218;-63
2022/07/01 08:00:11;;;;;;;28.60;22.75;;;16.10;99.90;;;;;;5044247;28;20041;-63
2022/07/01 08:02:37;;;;;;;28.88;24.45;;;16.30;99.90;;;;;;5023520;28;20201;-62
2022/07/01 08:05:03;;;;;;;27.10;23.10;;;16.30;99.90;;;;;;5039724;28;20053;-62
2022/07/01 08:07:29;;;;;;;29.88;22.33;;;16.40;99.90;;;;;;5035957;28;20060;-63
2022/07/01 08:09:55;;;;;;;34.10;25.05;;;16.60;99.90;;;;;;5053821;28;20468;-63
2022/07/01 08:12:22;;;;;;;30.58;23.70;;;16.50;99.90;;;;;;5035496;28;20121;-63
2022/07/01 08:14:48;;;;;;;26.50;23.65;;;16.50;99.90;;;;;;5047720;28;20037;-62
2022/07/01 08:17:13;;;;;;;29.13;24.35;;;16.50;99.90;;;;;;5039081;28;20044;-63
2022/07/01 08:19:39;;;;;;;28.52;22.27;;;16.60;99.90;;;;;;5046715;28;20150;-63
2022/07/01 08:22:05;;;;;;;25.67;22.35;;;16.70;99.90;;;;;;5039975;28;20461;-62
2022/07/01 08:24:31;;;;;;;27.27;22.48;;;16.80;99.90;;;;;;5044751;28;20547;-62
2022/07/01 08:26:57;;;;;;;27.60;22.33;;;16.60;99.90;;;;;;5043364;28;20080;-62
2022/07/01 08:29:23;;;;;;;26.52;22.95;;;16.70;99.90;;;;;;5038259;28;20269;-62
2022/07/01 08:31:48;;;;;;;26.75;23.23;;;16.60;99.90;;;;;;5045139;28;20087;-63
2022/07/01 08:34:15;;;;;;;26.58;22.50;;;16.70;99.90;;;;;;5028464;28;20045;-62
2022/07/01 08:36:41;;;;;;;25.58;21.55;;;16.70;99.90;;;;;;5044545;28;20057;-62
2022/07/01 08:39:06;;;;;;;27.90;20.58;;;16.90;99.90;;;;;;5044280;28;20064;-62
2022/07/01 08:41:32;;;;;;;23.58;20.17;;;16.90;99.90;;;;;;5044819;28;20303;-62
2022/07/01 08:43:58;;;;;;;24.20;20.23;;;17.00;99.90;;;;;;5013283;28;20056;-62
2022/07/01 08:46:26;;;;;;;27.10;21.45;;;17.00;99.90;;;;;;5050527;28;20049;-63
2022/07/01 08:48:52;;;;;;;24.88;20.85;;;17.00;99.90;;;;;;5039676;28;20114;-62
2022/07/01 08:51:18;;;;;;;22.15;17.95;;;17.00;99.90;;;;;;5057344;28;20134;-62
2022/07/01 08:53:44;;;;;;;26.42;19.17;;;17.30;99.90;;;;;;5022562;28;20057;-62
2022/07/01 08:58:55;;;;;;;23.23;19.48;;;17.30;99.90;;;;;;5024513;28;20054;-62
2022/07/01 09:01:23;;;;;;;21.98;19.02;;;17.30;99.90;;;;;;5037525;28;20045;-62
2022/07/01 09:03:52;;;;;;;18.52;15.13;;;17.40;99.90;;;;;;5048374;28;20061;-63
2022/07/01 09:06:19;;;;;;;20.27;16.13;;;17.50;99.90;;;;;;5056683;28;20049;-62
2022/07/01 09:08:45;;;;;;;19.60;14.88;;;17.50;99.90;;;;;;5042604;28;20433;-62
2022/07/01 09:11:20;;;;;;;21.35;17.73;;;17.60;99.90;;;;;;5058087;28;20071;-62
2022/07/01 09:14:14;;;;;;;20.70;15.95;;;17.80;99.90;;;;;;5046326;28;20394;-62
2022/07/01 09:16:41;;;;;;;20.38;16.08;;;17.70;99.90;;;;;;5049311;28;20055;-63
2022/07/01 09:19:06;;;;;;;19.50;13.75;;;17.50;99.90;;;;;;5041416;28;20037;-62
2022/07/01 09:21:33;;;;;;;16.60;14.30;;;17.70;99.90;;;;;;5046613;28;20059;-63
2022/07/01 09:24:03;;;;;;;21.42;14.70;;;17.80;99.90;;;;;;5039126;28;20045;-63
2022/07/01 09:26:29;;;;;;;17.77;14.73;;;18.00;99.90;;;;;;5058032;28;20244;-63
2022/07/01 09:28:56;;;;;;;15.75;12.82;;;18.10;99.90;;;;;;5044563;28;20065;-62
2022/07/01 09:31:30;;;;;;;16.98;12.77;;;18.40;99.90;;;;;;5052604;28;20071;-62
2022/07/01 09:34:07;;;;;;;16.77;13.65;;;18.50;99.90;;;;;;5045427;28;20076;-62
2022/07/01 09:36:39;;;;;;;14.27;11.77;;;18.40;99.90;;;;;;5058288;28;20088;-62
2022/07/01 09:39:05;;;;;;;14.10;12.45;;;18.40;99.90;;;;;;5030526;28;20059;-62
2022/07/01 09:41:38;;;;;;;16.10;10.32;;;18.40;99.90;;;;;;5058020;28;20424;-63
2022/07/01 09:44:08;;;;;;;12.15;10.07;;;18.40;99.90;;;;;;5018631;28;20487;-62
2022/07/01 09:46:34;;;;;;;12.63;9.82;;;18.40;99.90;;;;;;5056133;28;20049;-63
2022/07/01 09:49:00;;;;;;;17.13;12.00;;;18.20;99.90;;;;;;5030386;28;20053;-63
2022/07/01 09:51:27;;;;;;;13.45;9.75;;;18.00;99.90;;;;;;5055735;28;20541;-62
2022/07/01 09:53:53;;;;;;;15.77;12.05;;;18.20;99.90;;;;;;5036880;28;20272;-62
2022/07/01 09:56:22;;;;;;;18.95;13.05;;;18.20;99.90;;;;;;5056115;28;20345;-63
2022/07/01 09:58:48;;;;;;;15.35;11.80;;;18.10;99.90;;;;;;5041745;28;20515;-62
2022/07/01 10:01:15;;;;;;;16.30;10.70;;;18.30;99.90;;;;;;5057556;28;20053;-62
2022/07/01 10:03:41;;;;;;;13.18;9.70;;;18.30;99.90;;;;;;5033677;28;20056;-62
2022/07/01 10:06:07;;;;;;;14.35;10.30;;;18.30;99.90;;;;;;5057240;28;20056;-62
2022/07/01 10:09:01;;;;;;;12.40;9.23;;;18.40;99.90;;;;;;5040420;28;20049;-62
2022/07/01 10:12:05;;;;;;;14.93;9.30;;;18.30;99.90;;;;;;5056202;28;20065;-62
2022/07/01 10:14:32;;;;;;;12.55;7.43;;;18.30;99.90;;;;;;5024629;28;20049;-62
2022/07/01 10:16:57;;;;;;;14.93;9.15;;;18.60;99.90;;;;;;5030117;28;20053;-63
2022/07/01 10:19:24;;;;;;;11.18;8.32;;;18.60;99.90;;;;;;5050474;28;20060;-62
2022/07/01 10:21:56;;;;;;;12.23;8.45;;;18.50;99.90;;;;;;5027469;28;20053;-62
2022/07/01 10:24:23;;;;;;;13.32;7.88;;;18.70;99.90;;;;;;5068519;28;20046;-62
2022/07/01 10:26:49;;;;;;;11.25;7.82;;;18.80;99.90;;;;;;5030616;28;20053;-62
2022/07/01 10:29:32;;;;;;;13.35;8.32;;;19.00;99.90;;;;;;5051117;28;20038;-62
2022/07/01 10:32:08;;;;;;;14.63;9.02;;;18.80;99.90;;;;;;5030741;28;20048;-62
2022/07/01 10:34:35;;;;;;;13.13;8.48;;;18.70;99.90;;;;;;5044194;28;20305;-62
2022/07/01 10:37:10;;;;;;;16.35;8.32;;;18.70;99.90;;;;;;5034476;28;20361;-61
2022/07/01 10:40:08;;;;;;;13.77;8.18;;;18.70;99.90;;;;;;5049037;28;20537;-62
2022/07/01 10:42:54;;;;;;;11.05;7.68;;;18.80;99.90;;;;;;4969348;28;20465;-63
2022/07/01 10:45:20;;;;;;;11.30;7.72;;;19.10;99.90;;;;;;4994952;28;20057;-61
2022/07/01 10:47:46;;;;;;;13.55;8.85;;;19.30;99.90;;;;;;4988356;28;20386;-62
2022/07/01 10:50:16;;;;;;;11.32;7.63;;;19.20;99.90;;;;;;4999208;28;20097;-63
2022/07/01 10:53:00;;;;;;;;;;;19.30;99.90;;;;;;4991167;28;20056;-62
2022/07/01 10:55:44;;;;;;;10.23;7.03;;;19.30;99.90;;;;;;4979287;28;19939;-62
2022/07/01 10:58:10;;;;;;;10.05;6.68;;;19.50;99.90;;;;;;4971844;28;20042;-62
2022/07/01 11:00:40;;;;;;;7.85;6.30;;;19.50;99.90;;;;;;5001906;28;20053;-63
2022/07/01 11:03:22;;;;;;;7.18;5.57;;;19.40;99.90;;;;;;5001125;28;20118;-62
2022/07/01 11:05:54;;;;;;;6.80;6.05;;;19.60;99.90;;;;;;5002586;28;20054;-62
2022/07/01 11:08:19;;;;;;;9.60;6.32;;;19.40;99.90;;;;;;4997003;28;20082;-62
2022/07/01 11:10:50;;;;;;;8.75;6.07;;;19.60;99.90;;;;;;4998469;28;20088;-62
2022/07/01 11:13:16;;;;;;;10.40;6.93;;;19.60;99.90;;;;;;4983513;28;20122;-62
2022/07/01 11:15:46;;;;;;;9.40;5.70;;;19.90;99.90;;;;;;4972871;28;20050;-64
2022/07/01 11:18:14;;;;;;;15.70;6.50;;;19.70;99.90;;;;;;5021931;28;20146;-63
2022/07/01 11:20:39;;;;;;;11.48;6.07;;;19.90;99.90;;;;;;5038800;28;20528;-63
2022/07/01 11:23:06;;;;;;;8.32;5.63;;;19.90;99.90;;;;;;5037150;28;20072;-63
2022/07/01 11:25:32;;;;;;;8.18;5.43;;;19.80;99.90;;;;;;5041318;28;20049;-63
2022/07/01 11:27:57;;;;;;;7.15;5.78;;;19.90;99.90;;;;;;5042309;28;20055;-64
2022/07/01 11:30:24;;;;;;;7.32;5.63;;;19.60;99.90;;;;;;5044658;28;20047;-64
2022/07/01 11:32:53;;;;;;;6.75;4.47;;;19.60;99.90;;;;;;5040439;28;20041;-64
2022/07/01 11:41:06;;;;;;;6.72;4.28;;;20.20;99.90;;;;;;5042127;28;20069;-63
2022/07/01 11:43:35;;;;;;;7.03;4.40;;;20.10;99.90;;;;;;5030195;28;20207;-65
2022/07/01 11:46:02;;;;;;;6.90;4.88;;;20.30;99.90;;;;;;5044866;28;20042;-63
2022/07/01 11:48:35;;;;;;;8.43;5.10;;;20.40;99.90;;;;;;5039528;28;20056;-62
2022/07/01 11:51:05;;;;;;;8.23;4.72;;;20.10;99.90;;;;;;5038565;28;20051;-62
2022/07/01 11:53:31;;;;;;;6.05;4.60;;;20.20;99.90;;;;;;5061506;28;20686;-63
2022/07/01 11:55:56;;;;;;;10.88;4.93;;;20.60;99.90;;;;;;5031055;28;20052;-63
2022/07/01 11:58:22;;;;;;;7.00;4.28;;;20.70;99.90;;;;;;5060803;28;20079;-62
2022/07/01 12:00:49;;;;;;;4.53;3.80;;;20.70;99.90;;;;;;5051209;28;20053;-63
2022/07/01 12:03:30;;;;;;;8.88;3.63;;;20.70;99.90;;;;;;5047265;28;20048;-63
2022/07/01 12:05:57;;;;;;;6.78;4.13;;;20.70;99.90;;;;;;5050267;28;20045;-63
2022/07/01 12:08:22;;;;;;;5.25;4.07;;;20.80;99.90;;;;;;5027237;28;20068;-62
2022/07/01 12:10:48;;;;;;;7.00;3.50;;;20.90;99.90;;;;;;5035726;28;20065;-63
2022/07/01 12:13:22;;;;;;;7.30;3.50;;;21.00;99.90;;;;;;5042838;28;20355;-63
2022/07/01 12:15:48;;;;;;;5.88;3.25;;;20.90;99.90;;;;;;5035413;28;20049;-63
2022/07/01 12:18:15;;;;;;;6.40;3.28;;;20.80;99.90;;;;;;5036492;28;20057;-62
2022/07/01 12:20:48;;;;;;;5.13;3.40;;;20.60;99.90;;;;;;5042857;28;20057;-62
2022/07/01 12:23:14;;;;;;;10.02;3.38;;;20.50;99.90;;;;;;5040869;28;20049;-62
2022/07/01 12:25:39;;;;;;;7.38;3.22;;;20.40;99.90;;;;;;5058110;28;20068;-63
2022/07/01 12:28:05;;;;;;;9.55;4.20;;;20.00;99.90;;;;;;5041791;28;20068;-62
2022/07/01 12:30:33;;;;;;;7.15;3.20;;;19.90;99.90;;;;;;5058843;28;20063;-62
2022/07/01 12:33:09;;;;;;;6.07;3.50;;;20.10;99.90;;;;;;5045374;28;20045;-62
2022/07/01 12:35:42;;;;;;;7.95;3.10;;;20.30;99.90;;;;;;5050859;28;20101;-63
2022/07/01 12:38:15;;;;;;;5.90;3.40;;;20.30;99.90;;;;;;5042928;28;20044;-63
2022/07/01 12:40:41;;;;;;;3.80;2.63;;;20.20;99.90;;;;;;5058220;28;20053;-62
2022/07/01 12:43:22;;;;;;;5.68;2.95;;;20.10;99.90;;;;;;5021502;28;20092;-62
2022/07/01 12:45:48;;;;;;;7.80;2.78;;;20.00;99.90;;;;;;5044661;28;20575;-63
2022/07/01 12:48:13;;;;;;;6.93;2.55;;;20.20;99.90;;;;;;5029641;28;20376;-63
2022/07/01 12:50:39;;;;;;;8.38;2.03;;;20.50;99.90;;;;;;5035586;28;20103;-63
2022/07/01 12:53:05;;;;;;;5.70;1.90;;;21.00;99.90;;;;;;5031871;28;20071;-63
2022/07/01 12:55:33;;;;;;;5.40;1.70;;;21.10;99.90;;;;;;5049949;28;20037;-62